createdAt,value
2022-11-04T00:03:58.853Z,0
2022-11-04T00:08:41.167Z,0
2022-11-04T00:13:23.480Z,0
2022-11-04T00:18:05.692Z,0
2022-11-04T00:22:48.003Z,0
2022-11-04T00:27:30.416Z,0
2022-11-04T00:32:12.576Z,0
2022-11-04T00:36:54.854Z,0
2022-11-04T00:41:37.158Z,0
2022-11-04T00:46:19.401Z,0
2022-11-04T00:51:00.677Z,0
2022-11-04T00:55:42.991Z,0
2022-11-04T01:00:25.319Z,0
2022-11-04T01:05:07.515Z,0
2022-11-04T01:09:49.840Z,0
2022-11-04T01:14:32.146Z,0
2022-11-04T01:19:14.364Z,0
2022-11-04T01:23:56.697Z,0
2022-11-04T01:28:38.974Z,0
2022-11-04T01:33:21.278Z,0
2022-11-04T01:42:45.819Z,0
2022-11-04T01:47:28.027Z,0
2022-11-04T01:52:10.359Z,0
2022-11-04T01:56:51.654Z,0
2022-11-04T02:01:33.869Z,0
2022-11-04T02:06:16.180Z,0
2022-11-04T02:10:58.537Z,0
2022-11-04T02:15:40.824Z,0
2022-11-04T02:20:23.013Z,0
2022-11-04T02:29:47.639Z,0
2022-11-04T02:34:29.865Z,0
2022-11-04T02:39:12.162Z,0
2022-11-04T02:43:54.522Z,0
2022-11-04T02:48:36.759Z,0
2022-11-04T02:53:19.032Z,0
2022-11-04T02:58:00.309Z,0
2022-11-04T03:02:42.523Z,0
2022-11-04T03:07:24.895Z,0
2022-11-04T03:16:49.372Z,0
2022-11-04T03:26:13.008Z,0
2022-11-04T03:30:54.300Z,0
2022-11-04T03:35:36.616Z,0
2022-11-04T03:40:18.838Z,0
2022-11-04T03:45:00.132Z,0
2022-11-04T03:49:42.453Z,0
2022-11-04T03:54:24.794Z,0
2022-11-04T04:03:49.292Z,0
2022-11-04T04:08:31.591Z,0
2022-11-04T04:13:13.806Z,0
2022-11-04T04:17:56.260Z,0
2022-11-04T04:22:38.433Z,0
2022-11-04T04:27:20.643Z,0
2022-11-04T04:32:03.028Z,0
2022-11-04T04:36:45.268Z,0
2022-11-04T04:41:27.481Z,0
2022-11-04T04:50:51.115Z,0
2022-11-04T04:55:32.418Z,0
2022-11-04T05:00:14.729Z,0
2022-11-04T05:04:55.947Z,0
2022-11-04T05:09:38.255Z,0
2022-11-04T05:14:20.575Z,0
2022-11-04T05:23:45.114Z,0
2022-11-04T05:28:27.372Z,0
2022-11-04T05:37:51.899Z,0
2022-11-04T05:42:34.218Z,0
2022-11-04T05:47:16.538Z,0
2022-11-04T05:51:58.899Z,0
2022-11-04T05:56:41.057Z,0
2022-11-04T06:01:23.362Z,0
2022-11-04T06:06:04.672Z,0
2022-11-04T06:10:46.887Z,0
2022-11-04T06:15:29.220Z,0
2022-11-04T06:24:53.724Z,5
2022-11-04T06:29:36.044Z,11
2022-11-04T06:34:18.402Z,11
2022-11-04T06:39:00.576Z,28
2022-11-04T06:43:42.893Z,33
2022-11-04T06:48:25.235Z,56
2022-11-04T06:53:07.400Z,33
2022-11-04T06:57:49.749Z,33
2022-11-04T07:02:32.023Z,50
2022-11-04T07:07:13.337Z,67
2022-11-04T07:11:55.601Z,73
2022-11-04T07:21:19.175Z,56
2022-11-04T07:26:00.486Z,45
2022-11-04T07:30:42.723Z,67
2022-11-04T07:35:25.012Z,90
2022-11-04T07:40:07.343Z,95
2022-11-04T07:44:49.581Z,95
2022-11-04T07:49:31.848Z,90
2022-11-04T07:58:56.372Z,84
2022-11-04T08:03:38.730Z,78
2022-11-04T08:08:21.050Z,67
2022-11-04T08:13:03.248Z,61
2022-11-04T08:17:45.581Z,56
2022-11-04T08:22:27.839Z,67
2022-11-04T08:27:09.168Z,56
2022-11-04T08:31:51.365Z,56
2022-11-04T08:36:33.677Z,39
2022-11-04T08:45:58.227Z,45
2022-11-04T08:55:22.840Z,56
2022-11-04T09:00:05.055Z,78
2022-11-04T09:04:47.356Z,56
2022-11-04T09:09:29.708Z,56
2022-11-04T09:14:11.887Z,61
2022-11-04T09:18:54.215Z,73
2022-11-04T09:23:36.510Z,45
2022-11-04T09:28:17.818Z,90
2022-11-04T09:33:00.096Z,90
2022-11-04T09:37:42.375Z,135
2022-11-04T09:42:24.660Z,135
2022-11-04T09:47:06.876Z,174
2022-11-04T09:51:49.190Z,168
2022-11-04T09:56:31.502Z,191
2022-11-04T10:01:13.721Z,236
2022-11-04T10:05:56.042Z,270
2022-11-04T10:10:38.370Z,292
2022-11-04T10:15:20.571Z,337
2022-11-04T10:20:02.867Z,393
2022-11-04T10:24:44.172Z,393
2022-11-04T10:29:25.486Z,331
2022-11-04T10:34:07.695Z,286
2022-11-04T10:38:50.021Z,298
2022-11-04T10:43:32.329Z,286
2022-11-04T10:48:14.536Z,275
2022-11-04T10:52:56.857Z,264
2022-11-04T10:57:39.209Z,241
2022-11-04T11:02:21.393Z,275
2022-11-04T11:07:03.701Z,303
2022-11-04T11:11:46.004Z,292
2022-11-04T11:16:27.320Z,371
2022-11-04T11:21:08.640Z,382
2022-11-04T11:25:50.864Z,433
2022-11-04T11:30:33.168Z,427
2022-11-04T11:35:15.479Z,416
2022-11-04T11:39:57.680Z,343
2022-11-04T11:44:39.996Z,354
2022-11-04T11:49:22.358Z,399
2022-11-04T11:54:04.516Z,421
2022-11-04T11:58:46.835Z,337
2022-11-04T12:03:29.148Z,365
2022-11-04T12:08:11.357Z,343
2022-11-04T12:12:53.673Z,275
2022-11-04T12:17:36.034Z,376
2022-11-04T12:22:17.199Z,354
2022-11-04T12:26:59.512Z,298
2022-11-04T12:31:41.821Z,292
2022-11-04T12:36:24.063Z,157
2022-11-04T12:41:06.357Z,95
2022-11-04T12:45:48.684Z,135
2022-11-04T12:50:30.879Z,196
2022-11-04T12:55:13.198Z,151
2022-11-04T12:59:55.505Z,151
2022-11-04T13:04:37.720Z,196
2022-11-04T13:09:20.051Z,196
2022-11-04T13:14:02.374Z,196
2022-11-04T13:18:44.553Z,208
2022-11-04T13:23:25.864Z,219
2022-11-04T13:28:07.174Z,213
2022-11-04T13:32:49.499Z,219
2022-11-04T13:37:31.704Z,196
2022-11-04T13:42:14.030Z,168
2022-11-04T13:46:56.356Z,168
2022-11-04T13:51:38.544Z,140
2022-11-04T13:56:20.857Z,151
2022-11-04T14:01:03.176Z,140
2022-11-04T14:05:45.385Z,135
2022-11-04T14:10:27.692Z,129
2022-11-04T14:15:10.004Z,112
2022-11-04T14:19:52.221Z,84
2022-11-04T14:24:34.535Z,90
2022-11-04T14:29:16.856Z,95
2022-11-04T14:33:59.060Z,95
2022-11-04T14:38:41.375Z,78
2022-11-04T14:43:22.683Z,61
2022-11-04T14:48:04.997Z,50
2022-11-04T14:52:47.224Z,39
2022-11-04T14:57:29.546Z,33
2022-11-04T15:02:11.836Z,28
2022-11-04T15:06:54.046Z,16
2022-11-04T15:11:36.362Z,16
2022-11-04T15:16:18.672Z,11
2022-11-04T15:21:00.887Z,11
2022-11-04T15:25:43.200Z,5
2022-11-04T15:30:25.527Z,5
2022-11-04T15:35:07.724Z,5
2022-11-04T15:39:50.147Z,5
2022-11-04T15:49:13.562Z,0
2022-11-04T15:53:55.900Z,0
2022-11-04T15:58:38.190Z,0
2022-11-04T16:03:20.455Z,0
2022-11-04T16:08:02.718Z,0
2022-11-04T16:12:45.027Z,0
2022-11-04T16:17:27.247Z,0
2022-11-04T16:31:34.097Z,0
2022-11-04T16:36:15.392Z,0
2022-11-04T16:40:56.707Z,0
2022-11-04T16:45:39.103Z,0
2022-11-04T16:50:21.522Z,0
2022-11-04T16:55:03.554Z,0
2022-11-04T16:59:45.854Z,0
2022-11-04T17:04:28.170Z,0
2022-11-04T17:09:10.384Z,0
2022-11-04T17:18:35.080Z,0
2022-11-04T17:23:17.261Z,0
2022-11-04T17:27:59.578Z,0
2022-11-04T17:32:41.849Z,0
2022-11-04T17:37:24.057Z,0
2022-11-04T17:42:05.370Z,0
2022-11-04T17:46:47.683Z,0
2022-11-04T17:51:29.899Z,0
2022-11-04T17:56:12.291Z,0
2022-11-04T18:00:54.633Z,0
2022-11-04T18:05:36.745Z,0
2022-11-04T18:15:01.364Z,0
2022-11-04T18:19:43.579Z,0
2022-11-04T18:24:25.933Z,0
2022-11-04T18:29:08.206Z,0
2022-11-04T18:33:50.418Z,0
2022-11-04T18:38:32.781Z,0
2022-11-04T18:43:14.087Z,0
2022-11-04T18:47:56.356Z,0
2022-11-04T18:52:38.613Z,0
2022-11-04T18:57:19.887Z,0
2022-11-04T19:02:01.286Z,0
2022-11-04T19:06:43.508Z,0
2022-11-04T19:11:25.833Z,0
2022-11-04T19:16:08.041Z,0
2022-11-04T19:20:50.350Z,0
2022-11-04T19:25:32.676Z,0
2022-11-04T19:30:14.874Z,0
2022-11-04T19:39:39.522Z,0
2022-11-04T19:44:21.715Z,0
2022-11-04T19:49:04.127Z,0
2022-11-04T19:53:46.340Z,0
2022-11-04T19:58:28.584Z,0
2022-11-04T20:03:10.927Z,0
2022-11-04T20:07:52.182Z,0
2022-11-04T20:12:34.393Z,0
2022-11-04T20:17:16.775Z,0
2022-11-04T20:21:59.018Z,0
2022-11-04T20:26:41.324Z,0
2022-11-04T20:36:05.889Z,0
2022-11-04T20:40:48.100Z,0
2022-11-04T20:45:30.431Z,0
2022-11-04T20:50:12.694Z,0
2022-11-04T20:54:54.982Z,0
2022-11-04T20:59:37.223Z,0
2022-11-04T21:04:19.538Z,0
2022-11-04T21:09:00.848Z,0
2022-11-04T21:13:43.086Z,0
2022-11-04T21:18:25.374Z,0
2022-11-04T21:23:07.684Z,0
2022-11-04T21:27:49.902Z,0
2022-11-04T21:32:32.213Z,0
2022-11-04T21:37:14.556Z,0
2022-11-04T21:41:56.748Z,0
2022-11-04T21:46:39.065Z,0
2022-11-04T21:51:21.381Z,0
2022-11-04T21:56:03.583Z,0
2022-11-04T22:00:45.894Z,0
2022-11-04T22:05:28.233Z,0
2022-11-04T22:10:10.424Z,0
2022-11-04T22:14:51.730Z,0
2022-11-04T22:19:34.054Z,0
2022-11-04T22:24:16.296Z,0
2022-11-04T22:33:40.893Z,0
2022-11-04T22:38:23.098Z,0
2022-11-04T22:43:05.411Z,0
2022-11-04T22:52:29.937Z,0
2022-11-04T23:01:54.569Z,0
2022-11-04T23:11:18.192Z,0
2022-11-04T23:16:00.407Z,0
2022-11-04T23:25:25.032Z,0
2022-11-04T23:30:07.289Z,0
2022-11-04T23:39:30.880Z,0
2022-11-04T23:48:54.498Z,0
2022-11-04T23:53:36.717Z,0
2022-11-04T23:58:19.076Z,0
